createdAt,value
2017-06-12T00:00:05.682Z,15.29
2017-06-12T00:00:34.176Z,15.27
2017-06-12T00:01:02.883Z,15.29
2017-06-12T00:01:31.397Z,15.32
2017-06-12T00:02:00.015Z,15.33
2017-06-12T00:02:28.641Z,15.25
2017-06-12T00:02:57.261Z,15.26
2017-06-12T00:03:25.886Z,15.22
2017-06-12T00:03:54.493Z,15.15
2017-06-12T00:04:23.100Z,15.25
2017-06-12T00:04:51.606Z,15.22
2017-06-12T00:05:20.209Z,15.17
2017-06-12T00:05:48.797Z,15.18
2017-06-12T00:06:17.405Z,15.17
2017-06-12T00:06:46.038Z,15.23
2017-06-12T00:07:14.634Z,15.11
2017-06-12T00:07:43.229Z,15.14
2017-06-12T00:08:11.719Z,15.11
2017-06-12T00:08:40.320Z,15.04
2017-06-12T00:09:08.957Z,15.05
2017-06-12T00:09:37.598Z,15.1
2017-06-12T00:10:06.207Z,15.08
2017-06-12T00:10:34.645Z,15.08
2017-06-12T00:11:03.265Z,15.15
2017-06-12T00:11:31.895Z,15.1
2017-06-12T00:12:00.505Z,15.07
2017-06-12T00:12:29.006Z,15.05
2017-06-12T00:12:57.525Z,15.07
2017-06-12T00:13:26.130Z,15.04
2017-06-12T00:13:54.564Z,14.99
2017-06-12T00:14:23.175Z,14.96
2017-06-12T00:14:51.775Z,15.05
2017-06-12T00:15:20.282Z,15.07
2017-06-12T00:15:48.816Z,14.99
2017-06-12T00:16:17.399Z,15.02
2017-06-12T00:16:46.020Z,15.02
2017-06-12T00:17:14.635Z,14.94
2017-06-12T00:17:43.250Z,15.02
2017-06-12T00:18:11.764Z,15
2017-06-12T00:18:40.372Z,14.96
2017-06-12T00:19:08.984Z,14.9
2017-06-12T00:19:37.604Z,14.94
2017-06-12T00:20:06.222Z,14.87
2017-06-12T00:20:34.842Z,14.9
2017-06-12T00:21:03.462Z,14.9
2017-06-12T00:21:32.053Z,14.92
2017-06-12T00:22:00.672Z,14.89
2017-06-12T00:22:29.299Z,14.87
2017-06-12T00:22:57.884Z,14.87
2017-06-12T00:23:26.404Z,14.86
2017-06-12T00:23:55.021Z,14.92
2017-06-12T00:24:23.594Z,14.78
2017-06-12T00:24:52.205Z,14.87
2017-06-12T00:25:20.816Z,14.78
2017-06-12T00:25:49.455Z,14.82
2017-06-12T00:26:18.041Z,14.73
2017-06-12T00:26:46.633Z,14.77
2017-06-12T00:27:15.237Z,14.85
2017-06-12T00:27:43.859Z,14.81
2017-06-12T00:28:12.281Z,14.81
2017-06-12T00:28:40.888Z,14.77
2017-06-12T00:29:09.524Z,14.7
2017-06-12T00:29:38.138Z,14.78
2017-06-12T00:30:06.770Z,14.85
2017-06-12T00:30:35.400Z,14.79
2017-06-12T00:31:03.904Z,14.78
2017-06-12T00:31:32.537Z,14.71
2017-06-12T00:32:01.147Z,14.78
2017-06-12T00:32:29.765Z,14.79
2017-06-12T00:32:58.259Z,14.77
2017-06-12T00:33:26.890Z,14.74
2017-06-12T00:33:55.416Z,14.85
2017-06-12T00:34:23.939Z,14.79
2017-06-12T00:34:52.454Z,14.86
2017-06-12T00:35:21.058Z,14.82
2017-06-12T00:35:49.675Z,14.79
2017-06-12T00:36:18.313Z,14.86
2017-06-12T00:36:46.913Z,14.9
2017-06-12T00:37:15.537Z,14.85
2017-06-12T00:37:44.153Z,14.82
2017-06-12T00:38:12.760Z,14.87
2017-06-12T00:38:41.379Z,14.85
2017-06-12T00:39:09.902Z,14.78
2017-06-12T00:39:38.545Z,14.85
2017-06-12T00:40:07.160Z,14.86
2017-06-12T00:40:35.777Z,14.81
2017-06-12T00:41:04.287Z,14.86
2017-06-12T00:41:32.894Z,14.81
2017-06-12T00:42:01.482Z,14.85
2017-06-12T00:42:30.009Z,14.82
2017-06-12T00:42:58.600Z,14.85
2017-06-12T00:43:27.093Z,14.79
2017-06-12T00:43:55.712Z,14.86
2017-06-12T00:44:24.310Z,14.94
2017-06-12T00:44:52.806Z,14.87
2017-06-12T00:45:21.425Z,14.79
2017-06-12T00:45:50.013Z,14.78
2017-06-12T00:46:18.650Z,14.86
2017-06-12T00:46:47.673Z,14.89
2017-06-12T00:47:20.091Z,14.9
2017-06-12T00:47:48.694Z,14.82
2017-06-12T00:48:17.304Z,14.9
2017-06-12T00:48:45.892Z,14.92
2017-06-12T00:49:14.402Z,14.9
2017-06-12T00:49:43.015Z,14.93
2017-06-12T00:50:11.595Z,14.9
2017-06-12T00:50:40.198Z,14.87
2017-06-12T00:51:08.819Z,14.9
2017-06-12T00:51:37.438Z,14.93
2017-06-12T00:52:06.032Z,14.9
2017-06-12T00:52:34.610Z,14.89
2017-06-12T00:53:03.234Z,14.82
2017-06-12T00:53:31.852Z,14.89
2017-06-12T00:54:00.491Z,14.89
2017-06-12T00:54:29.008Z,14.89
2017-06-12T00:54:57.771Z,14.87
2017-06-12T00:55:26.349Z,14.9
2017-06-12T00:55:54.963Z,14.87
2017-06-12T00:56:23.609Z,14.93
2017-06-12T00:56:52.240Z,14.89
2017-06-12T00:57:20.673Z,14.87
2017-06-12T00:57:49.274Z,14.87
2017-06-12T00:58:17.688Z,14.93
2017-06-12T00:58:46.311Z,14.87
2017-06-12T00:59:15.182Z,14.92
2017-06-12T00:59:43.786Z,14.89
2017-06-12T01:00:12.285Z,14.87
2017-06-12T01:00:40.801Z,14.82
2017-06-12T01:01:09.332Z,14.9
2017-06-12T01:01:37.927Z,14.82
2017-06-12T01:02:06.541Z,14.79
2017-06-12T01:02:35.157Z,14.82
2017-06-12T01:03:03.752Z,14.68
2017-06-12T01:03:32.262Z,14.71
2017-06-12T01:04:00.870Z,14.66
2017-06-12T01:04:29.472Z,14.71
2017-06-12T01:04:58.083Z,14.74
2017-06-12T01:05:26.690Z,14.68
2017-06-12T01:05:55.302Z,14.63
2017-06-12T01:06:23.808Z,14.55
2017-06-12T01:06:52.335Z,14.61
2017-06-12T01:07:20.765Z,14.51
2017-06-12T01:07:49.378Z,14.58
2017-06-12T01:08:18.001Z,14.56
2017-06-12T01:08:46.596Z,14.58
2017-06-12T01:09:15.187Z,14.56
2017-06-12T01:09:43.815Z,14.56
2017-06-12T01:10:12.329Z,14.56
2017-06-12T01:10:40.878Z,14.55
2017-06-12T01:11:09.490Z,14.4
2017-06-12T01:11:38.099Z,14.48
2017-06-12T01:12:06.736Z,14.43
2017-06-12T01:12:35.279Z,14.38
2017-06-12T01:13:03.889Z,14.38
2017-06-12T01:13:32.504Z,14.45
2017-06-12T01:14:01.117Z,14.41
2017-06-12T01:14:29.613Z,14.45
2017-06-12T01:14:58.235Z,14.41
2017-06-12T01:15:26.871Z,14.37
2017-06-12T01:15:55.437Z,14.31
2017-06-12T01:16:23.853Z,14.37
2017-06-12T01:16:52.377Z,14.41
2017-06-12T01:17:21.009Z,14.38
2017-06-12T01:17:49.613Z,14.34
2017-06-12T01:18:18.239Z,14.3
2017-06-12T01:18:46.866Z,14.3
2017-06-12T01:19:15.481Z,14.37
2017-06-12T01:19:44.062Z,14.36
2017-06-12T01:20:12.668Z,14.37
2017-06-12T01:20:41.280Z,14.31
2017-06-12T01:21:09.787Z,14.3
2017-06-12T01:21:38.392Z,14.41
2017-06-12T01:22:06.998Z,14.41
2017-06-12T01:22:35.511Z,14.28
2017-06-12T01:23:04.128Z,14.36
2017-06-12T01:23:32.653Z,14.34
2017-06-12T01:24:01.285Z,14.33
2017-06-12T01:24:29.914Z,14.34
2017-06-12T01:24:58.536Z,14.28
2017-06-12T01:25:27.044Z,14.25
2017-06-12T01:25:55.539Z,14.28
2017-06-12T01:26:24.156Z,14.28
2017-06-12T01:26:52.779Z,14.3
2017-06-12T01:27:21.374Z,14.26
2017-06-12T01:27:50.014Z,14.23
2017-06-12T01:28:18.635Z,14.28
2017-06-12T01:28:47.126Z,14.25
2017-06-12T01:29:15.641Z,14.25
2017-06-12T01:29:44.249Z,14.23
2017-06-12T01:30:12.787Z,14.25
2017-06-12T01:30:41.318Z,14.25
2017-06-12T01:31:09.907Z,14.2
2017-06-12T01:31:38.497Z,14.3
2017-06-12T01:32:06.979Z,14.31
2017-06-12T01:32:35.600Z,14.22
2017-06-12T01:33:04.180Z,14.3
2017-06-12T01:33:32.682Z,14.22
2017-06-12T01:34:01.280Z,14.3
2017-06-12T01:34:29.792Z,14.26
2017-06-12T01:34:58.413Z,14.16
2017-06-12T01:35:27.010Z,14.28
2017-06-12T01:35:55.605Z,14.2
2017-06-12T01:36:24.200Z,14.2
2017-06-12T01:36:52.793Z,14.28
2017-06-12T01:37:21.381Z,14.28
2017-06-12T01:37:49.995Z,14.2
2017-06-12T01:38:18.634Z,14.13
2017-06-12T01:38:47.073Z,14.16
2017-06-12T01:39:15.722Z,14.16
2017-06-12T01:39:44.313Z,14.22
2017-06-12T01:40:12.859Z,14.16
2017-06-12T01:40:41.481Z,14.19
2017-06-12T01:41:09.913Z,14.2
2017-06-12T01:41:38.498Z,14.26
2017-06-12T01:42:07.101Z,14.23
2017-06-12T01:42:35.700Z,14.28
2017-06-12T01:43:04.328Z,14.22
2017-06-12T01:43:32.930Z,14.28
2017-06-12T01:44:01.522Z,14.2
2017-06-12T01:44:30.107Z,14.3
2017-06-12T01:44:58.606Z,14.26
2017-06-12T01:45:27.220Z,14.2
2017-06-12T01:45:55.843Z,14.15
2017-06-12T01:46:24.358Z,14.18
2017-06-12T01:46:52.955Z,14.26
2017-06-12T01:47:21.467Z,14.18
2017-06-12T01:47:50.086Z,14.13
2017-06-12T01:48:18.691Z,14.22
2017-06-12T01:48:47.293Z,14.11
2017-06-12T01:49:15.796Z,14.05
2017-06-12T01:49:44.402Z,14.12
2017-06-12T01:50:13.014Z,14.12
2017-06-12T01:50:41.582Z,14.18
2017-06-12T01:51:10.103Z,14.11
2017-06-12T01:51:38.707Z,14.08
2017-06-12T01:52:07.320Z,14.12
2017-06-12T01:52:35.843Z,14.07
2017-06-12T01:53:04.380Z,14.05
2017-06-12T01:53:32.997Z,14.13
2017-06-12T01:54:01.607Z,14.07
2017-06-12T01:54:30.186Z,14.11
2017-06-12T01:54:58.800Z,14.01
2017-06-12T01:55:27.404Z,14
2017-06-12T01:55:55.945Z,14.01
2017-06-12T01:56:24.458Z,14.03
2017-06-12T01:56:53.075Z,14.04
2017-06-12T01:57:21.681Z,14.03
2017-06-12T01:57:50.307Z,13.97
2017-06-12T01:58:18.817Z,14
2017-06-12T01:58:47.429Z,14.03
2017-06-12T01:59:15.944Z,13.98
2017-06-12T01:59:44.565Z,14.12
2017-06-12T02:00:13.182Z,14.01
2017-06-12T02:00:41.710Z,14.12
2017-06-12T02:01:10.344Z,14.03
2017-06-12T02:01:38.849Z,13.93
2017-06-12T02:02:07.470Z,14.12
2017-06-12T02:02:36.101Z,13.98
2017-06-12T02:03:04.703Z,14.03
2017-06-12T02:03:33.328Z,13.97
2017-06-12T02:04:01.920Z,13.98
2017-06-12T02:04:30.435Z,14.12
2017-06-12T02:04:59.024Z,14.03
2017-06-12T02:05:27.644Z,14
2017-06-12T02:05:56.166Z,14.01
2017-06-12T02:06:24.661Z,14
2017-06-12T02:06:53.274Z,14.07
2017-06-12T02:07:21.890Z,14.04
2017-06-12T02:07:50.389Z,14.01
2017-06-12T02:08:18.911Z,14.01
2017-06-12T02:08:47.417Z,14.08
2017-06-12T02:09:15.932Z,13.98
2017-06-12T02:09:44.527Z,14
2017-06-12T02:10:13.131Z,14.07
2017-06-12T02:10:41.731Z,14.05
2017-06-12T02:11:10.257Z,14.05
2017-06-12T02:11:38.881Z,14.07
2017-06-12T02:12:07.523Z,14.04
2017-06-12T02:12:36.162Z,14.03
2017-06-12T02:13:04.762Z,14.08
2017-06-12T02:13:33.198Z,14.04
2017-06-12T02:14:01.779Z,14.01
2017-06-12T02:14:30.377Z,14.04
2017-06-12T02:14:58.885Z,14.03
2017-06-12T02:15:27.491Z,14.04
2017-06-12T02:15:56.007Z,14.03
2017-06-12T02:16:24.637Z,14.05
2017-06-12T02:16:53.256Z,14.05
2017-06-12T02:17:21.859Z,13.97
2017-06-12T02:17:50.474Z,14.03
2017-06-12T02:18:19.056Z,14.04
2017-06-12T02:18:47.553Z,14
2017-06-12T02:19:16.064Z,14.05
2017-06-12T02:19:44.591Z,14.04
2017-06-12T02:20:13.199Z,13.98
2017-06-12T02:20:41.793Z,14.04
2017-06-12T02:21:10.414Z,14
2017-06-12T02:21:39.028Z,13.98
2017-06-12T02:22:07.538Z,13.98
2017-06-12T02:22:36.173Z,14.01
2017-06-12T02:23:04.801Z,14.03
2017-06-12T02:23:33.431Z,14.07
2017-06-12T02:24:02.028Z,14.04
2017-06-12T02:24:30.666Z,14.05
2017-06-12T02:24:59.292Z,14.04
2017-06-12T02:25:27.738Z,14.01
2017-06-12T02:25:56.327Z,14.12
2017-06-12T02:26:24.941Z,14
2017-06-12T02:26:53.540Z,14
2017-06-12T02:27:21.965Z,14
2017-06-12T02:27:50.573Z,14.03
2017-06-12T02:28:19.183Z,14.04
2017-06-12T02:28:47.771Z,14.03
2017-06-12T02:29:16.366Z,14.08
2017-06-12T02:29:44.954Z,14.03
2017-06-12T02:30:13.609Z,14.01
2017-06-12T02:30:42.194Z,14.12
2017-06-12T02:31:10.814Z,14.04
2017-06-12T02:31:39.437Z,14.03
2017-06-12T02:32:08.065Z,13.97
2017-06-12T02:32:36.582Z,14.01
2017-06-12T02:33:05.190Z,14.08
2017-06-12T02:33:33.782Z,13.97
2017-06-12T02:34:02.389Z,14
2017-06-12T02:34:30.999Z,14.03
2017-06-12T02:34:59.610Z,14.08
2017-06-12T02:35:28.204Z,13.97
2017-06-12T02:35:56.786Z,14.04
2017-06-12T02:36:25.351Z,14.11
2017-06-12T02:36:53.995Z,14.08
2017-06-12T02:37:22.520Z,14.01
2017-06-12T02:37:51.130Z,14.03
2017-06-12T02:38:19.737Z,13.97
2017-06-12T02:38:48.333Z,14.01
2017-06-12T02:39:16.949Z,14.03
2017-06-12T02:39:45.570Z,14.04
2017-06-12T02:40:13.974Z,14.01
2017-06-12T02:40:42.559Z,14.03
2017-06-12T02:41:11.160Z,14.12
2017-06-12T02:41:39.743Z,14.01
2017-06-12T02:42:08.279Z,14
2017-06-12T02:42:36.859Z,14.03
2017-06-12T02:43:05.438Z,14
2017-06-12T02:43:34.031Z,14.07
2017-06-12T02:44:02.618Z,14.03
2017-06-12T02:44:31.241Z,14.03
2017-06-12T02:44:59.871Z,14.01
2017-06-12T02:45:31.186Z,14.07
2017-06-12T02:45:59.725Z,14.12
2017-06-12T02:46:28.390Z,14.01
2017-06-12T02:46:56.992Z,14.04
2017-06-12T02:47:25.588Z,14.13
2017-06-12T02:47:54.204Z,14.13
2017-06-12T02:48:22.838Z,14.11
2017-06-12T02:48:51.458Z,14.03
2017-06-12T02:49:19.977Z,14.13
2017-06-12T02:49:48.594Z,14.11
2017-06-12T02:50:17.210Z,14.13
2017-06-12T02:50:45.832Z,14.07
2017-06-12T02:51:14.342Z,14.13
2017-06-12T02:51:42.859Z,14.12
2017-06-12T02:52:11.470Z,14.15
2017-06-12T02:52:39.983Z,14.18
2017-06-12T02:53:08.505Z,14.05
2017-06-12T02:53:37.132Z,14.08
2017-06-12T02:54:05.724Z,14.2
2017-06-12T02:54:34.346Z,14.15
2017-06-12T02:55:02.861Z,14.08
2017-06-12T02:55:31.362Z,14.15
2017-06-12T02:55:59.957Z,14.19
2017-06-12T02:56:28.557Z,14.15
2017-06-12T02:56:57.131Z,14.15
2017-06-12T02:57:25.634Z,14.08
2017-06-12T02:57:54.153Z,14.2
2017-06-12T02:58:22.692Z,14.11
2017-06-12T02:58:51.203Z,14.05
2017-06-12T02:59:19.804Z,14.12
2017-06-12T02:59:48.394Z,14.16
2017-06-12T03:00:17.045Z,14.11
2017-06-12T03:00:45.436Z,14.07
2017-06-12T03:01:13.958Z,14.16
2017-06-12T03:01:42.573Z,14.07
2017-06-12T03:02:11.194Z,14.08
2017-06-12T03:02:39.794Z,14.19
2017-06-12T03:03:08.426Z,14.13
2017-06-12T03:03:36.960Z,14.08
2017-06-12T03:04:05.480Z,14.18
2017-06-12T03:04:34.085Z,14.16
2017-06-12T03:05:02.596Z,14.05
2017-06-12T03:05:31.203Z,14.11
2017-06-12T03:05:59.816Z,14.19
2017-06-12T03:06:28.234Z,14.2
2017-06-12T03:06:56.763Z,14.23
2017-06-12T03:07:25.372Z,14.19
2017-06-12T03:07:53.995Z,14.18
2017-06-12T03:08:22.503Z,14.19
2017-06-12T03:08:51.105Z,14.25
2017-06-12T03:09:19.717Z,14.2
2017-06-12T03:09:48.295Z,14.11
2017-06-12T03:10:16.923Z,14.23
2017-06-12T03:10:45.447Z,14.12
2017-06-12T03:11:14.020Z,14.16
2017-06-12T03:11:42.634Z,14.19
2017-06-12T03:12:11.150Z,14.08
2017-06-12T03:12:39.638Z,14.12
2017-06-12T03:13:08.176Z,14.11
2017-06-12T03:13:36.803Z,14.19
2017-06-12T03:14:05.406Z,14.19
2017-06-12T03:14:33.997Z,14.12
2017-06-12T03:15:02.633Z,14.19
2017-06-12T03:15:31.159Z,14.13
2017-06-12T03:15:59.658Z,14.12
2017-06-12T03:16:28.255Z,14.05
2017-06-12T03:16:56.780Z,14.08
2017-06-12T03:17:25.409Z,14.13
2017-06-12T03:17:54.043Z,14.16
2017-06-12T03:18:22.579Z,14.19
2017-06-12T03:18:51.217Z,14.2
2017-06-12T03:19:19.836Z,14.05
2017-06-12T03:19:48.461Z,14.08
2017-06-12T03:20:17.055Z,14.08
2017-06-12T03:20:45.682Z,14.11
2017-06-12T03:21:14.295Z,14.08
2017-06-12T03:21:42.904Z,14.2
2017-06-12T03:22:11.294Z,14.16
2017-06-12T03:22:39.919Z,14.13
2017-06-12T03:23:08.379Z,14.07
2017-06-12T03:23:36.893Z,14.13
2017-06-12T03:24:05.403Z,14.18
2017-06-12T03:24:33.823Z,14.11
2017-06-12T03:25:02.400Z,14.08
2017-06-12T03:25:30.929Z,14.16
2017-06-12T03:25:59.548Z,14.15
2017-06-12T03:26:28.086Z,14.08
2017-06-12T03:26:56.594Z,14.19
2017-06-12T03:27:25.205Z,14.11
2017-06-12T03:27:53.840Z,14.11
2017-06-12T03:28:22.450Z,14.16
2017-06-12T03:28:50.973Z,14.13
2017-06-12T03:29:19.563Z,14.15
2017-06-12T03:29:48.176Z,14.16
2017-06-12T03:30:16.792Z,14.11
2017-06-12T03:30:45.297Z,14.11
2017-06-12T03:31:13.849Z,14.11
2017-06-12T03:31:42.453Z,14.03
2017-06-12T03:32:11.046Z,14.08
2017-06-12T03:32:39.624Z,14.12
2017-06-12T03:33:08.262Z,14.15
2017-06-12T03:33:36.901Z,14.08
2017-06-12T03:34:05.507Z,14.08
2017-06-12T03:34:34.084Z,14.08
2017-06-12T03:35:02.717Z,14.11
2017-06-12T03:35:31.229Z,14.16
2017-06-12T03:35:59.828Z,14.08
2017-06-12T03:36:28.341Z,14.2
2017-06-12T03:36:56.957Z,14.08
2017-06-12T03:37:25.468Z,14.08
2017-06-12T03:37:54.101Z,14.08
2017-06-12T03:38:22.541Z,14.13
2017-06-12T03:38:51.067Z,14.22
2017-06-12T03:39:19.592Z,14.18
2017-06-12T03:39:48.181Z,14.2
2017-06-12T03:40:16.772Z,14.28
2017-06-12T03:40:45.251Z,14.25
2017-06-12T03:41:13.867Z,14.26
2017-06-12T03:41:42.486Z,14.2
2017-06-12T03:42:10.995Z,14.26
2017-06-12T03:42:39.574Z,14.19
2017-06-12T03:43:08.104Z,14.23
2017-06-12T03:43:36.742Z,14.2
2017-06-12T03:44:05.336Z,14.3
2017-06-12T03:44:33.855Z,14.22
2017-06-12T03:45:02.468Z,14.23
2017-06-12T03:45:31.108Z,14.3
2017-06-12T03:45:59.618Z,14.23
2017-06-12T03:46:28.139Z,14.3
2017-06-12T03:46:56.732Z,14.3
2017-06-12T03:47:25.333Z,14.3
2017-06-12T03:47:53.926Z,14.2
2017-06-12T03:48:22.539Z,14.28
2017-06-12T03:48:51.164Z,14.23
2017-06-12T03:49:19.642Z,14.28
2017-06-12T03:49:48.240Z,14.25
2017-06-12T03:50:16.825Z,14.2
2017-06-12T03:50:45.446Z,14.3
2017-06-12T03:51:14.067Z,14.19
2017-06-12T03:51:42.673Z,14.26
2017-06-12T03:52:11.287Z,14.3
2017-06-12T03:52:39.902Z,14.25
2017-06-12T03:53:08.508Z,14.23
2017-06-12T03:53:37.113Z,14.13
2017-06-12T03:54:05.550Z,14.13
2017-06-12T03:54:34.103Z,14.13
2017-06-12T03:55:02.725Z,14.2
2017-06-12T03:55:31.379Z,14.13
2017-06-12T03:56:00.016Z,14.18
2017-06-12T03:56:28.531Z,14.23
2017-06-12T03:56:57.059Z,14.18
2017-06-12T03:57:25.675Z,14.23
2017-06-12T03:57:54.266Z,14.2
2017-06-12T03:58:22.693Z,14.18
2017-06-12T03:58:51.224Z,14.13
2017-06-12T03:59:19.849Z,14.12
2017-06-12T03:59:48.443Z,14.13
2017-06-12T04:00:17.055Z,14.11
2017-06-12T04:00:45.664Z,14.16
2017-06-12T04:01:14.104Z,14.15
2017-06-12T04:01:42.703Z,14.16
2017-06-12T04:02:11.213Z,14.15
2017-06-12T04:02:39.744Z,14.13
2017-06-12T04:03:08.325Z,14.16
2017-06-12T04:03:36.942Z,14.13
2017-06-12T04:04:05.484Z,14.12
2017-06-12T04:04:34.100Z,14.12
2017-06-12T04:05:02.497Z,14.18
2017-06-12T04:05:31.107Z,14.12
2017-06-12T04:05:59.698Z,14.12
2017-06-12T04:06:28.315Z,14.12
2017-06-12T04:06:56.934Z,14.11
2017-06-12T04:07:25.540Z,14.12
2017-06-12T04:07:54.047Z,14.13
2017-06-12T04:08:22.637Z,14.12
2017-06-12T04:08:51.247Z,14.08
2017-06-12T04:09:19.872Z,14.13
2017-06-12T04:09:48.465Z,14.08
2017-06-12T04:10:16.996Z,14.07
2017-06-12T04:10:45.603Z,14.13
2017-06-12T04:11:14.192Z,14.11
2017-06-12T04:11:42.812Z,14.16
2017-06-12T04:12:11.325Z,14.16
2017-06-12T04:12:39.923Z,14.08
2017-06-12T04:13:08.524Z,14.16
2017-06-12T04:13:37.165Z,14.2
2017-06-12T04:14:05.576Z,14.15
2017-06-12T04:14:34.205Z,14.11
2017-06-12T04:15:02.813Z,14.12
2017-06-12T04:15:31.432Z,14.2
2017-06-12T04:16:00.023Z,14.13
2017-06-12T04:16:28.475Z,14.16
2017-06-12T04:16:57.076Z,14.05
2017-06-12T04:17:25.571Z,14.13
2017-06-12T04:17:54.194Z,14.12
2017-06-12T04:18:22.828Z,14.11
2017-06-12T04:18:51.432Z,14.12
2017-06-12T04:19:20.046Z,14.11
2017-06-12T04:19:48.682Z,14.18
2017-06-12T04:20:17.313Z,14.19
2017-06-12T04:20:45.943Z,14.16
2017-06-12T04:21:14.486Z,14.13
2017-06-12T04:21:43.108Z,14.2
2017-06-12T04:22:11.729Z,14.23
2017-06-12T04:22:40.352Z,14.22
2017-06-12T04:23:08.957Z,14.18
2017-06-12T04:23:37.586Z,14.12
2017-06-12T04:24:06.176Z,14.2
2017-06-12T04:24:34.696Z,14.19
2017-06-12T04:25:03.180Z,14.16
2017-06-12T04:25:31.763Z,14.13
2017-06-12T04:26:00.375Z,14.18
2017-06-12T04:26:28.882Z,14.08
2017-06-12T04:26:57.397Z,14.19
2017-06-12T04:27:25.972Z,14.19
2017-06-12T04:27:54.569Z,14.19
2017-06-12T04:28:23.004Z,14.18
2017-06-12T04:28:51.530Z,14.08
2017-06-12T04:29:20.179Z,14.11
2017-06-12T04:29:48.765Z,14.15
2017-06-12T04:30:17.239Z,14.15
2017-06-12T04:30:45.850Z,14.16
2017-06-12T04:31:14.446Z,14.18
2017-06-12T04:31:43.068Z,14.16
2017-06-12T04:32:11.567Z,14.07
2017-06-12T04:32:40.198Z,14.07
2017-06-12T04:33:08.809Z,14.11
2017-06-12T04:33:37.403Z,14.11
2017-06-12T04:34:05.891Z,14.08
2017-06-12T04:34:34.496Z,14.12
2017-06-12T04:35:03.021Z,14.11
2017-06-12T04:35:31.645Z,14.13
2017-06-12T04:36:00.255Z,14.22
2017-06-12T04:36:28.873Z,14.13
2017-06-12T04:36:57.483Z,14.08
2017-06-12T04:37:26.081Z,14.22
2017-06-12T04:37:54.681Z,14.2
2017-06-12T04:38:23.207Z,14.22
2017-06-12T04:38:51.842Z,14.22
2017-06-12T04:39:20.423Z,14.08
2017-06-12T04:39:49.037Z,14.2
2017-06-12T04:40:17.521Z,14.19
2017-06-12T04:40:46.052Z,14.19
2017-06-12T04:41:14.646Z,14.12
2017-06-12T04:41:43.270Z,14.22
2017-06-12T04:42:11.806Z,14.18
2017-06-12T04:42:40.393Z,14.08
2017-06-12T04:43:09.009Z,14.16
2017-06-12T04:43:37.610Z,14.13
2017-06-12T04:44:06.219Z,14.12
2017-06-12T04:44:34.839Z,14.15
2017-06-12T04:45:03.238Z,14.2
2017-06-12T04:45:31.754Z,14.2
2017-06-12T04:46:00.354Z,14.08
2017-06-12T04:46:28.983Z,14.07
2017-06-12T04:46:57.579Z,14.11
2017-06-12T04:47:26.176Z,14.12
2017-06-12T04:47:54.807Z,14.19
2017-06-12T04:48:23.298Z,14.15
2017-06-12T04:48:51.804Z,14.15
2017-06-12T04:49:20.395Z,14.19
2017-06-12T04:49:49.013Z,14.12
2017-06-12T04:50:17.516Z,14.13
2017-06-12T04:50:46.954Z,14.07
2017-06-12T04:51:16.164Z,14.13
2017-06-12T04:51:44.763Z,14.07
2017-06-12T04:52:13.364Z,14.11
2017-06-12T04:52:41.985Z,14.13
2017-06-12T04:53:10.586Z,14.05
2017-06-12T04:53:39.189Z,14.12
2017-06-12T04:54:07.793Z,14.18
2017-06-12T04:54:36.202Z,14.11
2017-06-12T04:55:04.810Z,14.11
2017-06-12T04:55:33.300Z,14.13
2017-06-12T04:56:01.903Z,14.18
2017-06-12T04:56:30.312Z,14.15
2017-06-12T04:56:58.891Z,14.23
2017-06-12T04:57:27.492Z,14.25
2017-06-12T04:57:56.117Z,14.13
2017-06-12T04:58:24.738Z,14.23
2017-06-12T04:58:53.251Z,14.19
2017-06-12T04:59:21.678Z,14.22
2017-06-12T04:59:50.294Z,14.25
2017-06-12T05:00:18.886Z,14.15
2017-06-12T05:00:47.491Z,14.26
2017-06-12T05:01:16.094Z,14.23
2017-06-12T05:01:44.697Z,14.23
2017-06-12T05:02:13.203Z,14.23
2017-06-12T05:02:42.389Z,14.25
2017-06-12T05:03:10.839Z,14.23
2017-06-12T05:03:39.280Z,14.25
2017-06-12T05:04:07.925Z,14.23
2017-06-12T05:04:36.536Z,14.18
2017-06-12T05:05:05.015Z,14.28
2017-06-12T05:05:33.536Z,14.3
2017-06-12T05:06:02.155Z,14.28
2017-06-12T05:06:30.647Z,14.3
2017-06-12T05:06:59.173Z,14.28
2017-06-12T05:07:27.800Z,14.28
2017-06-12T05:07:56.409Z,14.23
2017-06-12T05:08:25.005Z,14.3
2017-06-12T05:08:53.596Z,14.26
2017-06-12T05:09:22.140Z,14.31
2017-06-12T05:09:50.781Z,14.26
2017-06-12T05:10:19.366Z,14.26
2017-06-12T05:10:47.913Z,14.36
2017-06-12T05:11:16.483Z,14.28
2017-06-12T05:11:45.091Z,14.34
2017-06-12T05:12:13.688Z,14.28
2017-06-12T05:12:42.284Z,14.26
2017-06-12T05:13:10.908Z,14.3
2017-06-12T05:13:39.403Z,14.25
2017-06-12T05:14:08.022Z,14.23
2017-06-12T05:14:36.616Z,14.22
2017-06-12T05:15:05.240Z,14.3
2017-06-12T05:15:33.848Z,14.31
2017-06-12T05:16:02.368Z,14.25
2017-06-12T05:16:30.785Z,14.23
2017-06-12T05:16:59.290Z,14.16
2017-06-12T05:17:27.804Z,14.26
2017-06-12T05:17:56.403Z,14.2
2017-06-12T05:18:24.985Z,14.19
2017-06-12T05:18:53.565Z,14.2
2017-06-12T05:19:22.073Z,14.16
2017-06-12T05:19:50.601Z,14.15
2017-06-12T05:20:19.131Z,14.19
2017-06-12T05:20:47.742Z,14.12
2017-06-12T05:21:16.353Z,14.12
2017-06-12T05:21:44.779Z,14.15
2017-06-12T05:22:13.397Z,14.12
2017-06-12T05:22:42.200Z,14.15
2017-06-12T05:23:10.722Z,14.08
2017-06-12T05:23:39.329Z,14.03
2017-06-12T05:24:07.910Z,14.07
2017-06-12T05:24:36.423Z,14.04
2017-06-12T05:25:05.025Z,14.08
2017-06-12T05:25:33.639Z,14.04
2017-06-12T05:26:02.242Z,14.03
2017-06-12T05:26:30.755Z,13.97
2017-06-12T05:26:59.270Z,14
2017-06-12T05:27:27.888Z,13.95
2017-06-12T05:27:56.323Z,13.89
2017-06-12T05:28:24.915Z,13.93
2017-06-12T05:28:53.424Z,13.91
2017-06-12T05:29:22.038Z,13.94
2017-06-12T05:29:50.663Z,13.94
2017-06-12T05:30:19.248Z,13.91
2017-06-12T05:30:47.855Z,13.94
2017-06-12T05:31:16.306Z,13.91
2017-06-12T05:31:44.816Z,13.94
2017-06-12T05:32:13.405Z,13.97
2017-06-12T05:32:42.030Z,13.91
2017-06-12T05:33:10.527Z,14
2017-06-12T05:33:39.041Z,13.95
2017-06-12T05:34:07.646Z,14.04
2017-06-12T05:34:36.265Z,14.03
2017-06-12T05:35:04.887Z,13.97
2017-06-12T05:35:33.501Z,14.03
2017-06-12T05:36:02.014Z,13.98
2017-06-12T05:36:30.607Z,14.01
2017-06-12T05:36:59.220Z,14.07
2017-06-12T05:37:27.814Z,13.94
2017-06-12T05:37:56.444Z,14.01
2017-06-12T05:38:25.076Z,14.04
2017-06-12T05:38:53.680Z,14.03
2017-06-12T05:39:22.309Z,14.03
2017-06-12T05:39:50.925Z,14.05
2017-06-12T05:40:19.523Z,14.07
2017-06-12T05:40:48.092Z,14.05
2017-06-12T05:41:16.701Z,13.94
2017-06-12T05:41:45.330Z,14
2017-06-12T05:42:13.952Z,14.07
2017-06-12T05:42:42.553Z,13.93
2017-06-12T05:43:11.165Z,14
2017-06-12T05:43:39.765Z,13.93
2017-06-12T05:44:08.159Z,13.98
2017-06-12T05:44:36.772Z,13.98
2017-06-12T05:45:05.382Z,13.94
2017-06-12T05:45:33.857Z,14
2017-06-12T05:46:02.474Z,13.94
2017-06-12T05:46:30.985Z,13.94
2017-06-12T05:46:59.485Z,13.94
2017-06-12T05:47:28.009Z,14
2017-06-12T05:47:56.628Z,13.95
2017-06-12T05:48:25.251Z,13.97
2017-06-12T05:48:53.880Z,13.98
2017-06-12T05:49:22.497Z,13.97
2017-06-12T05:49:51.001Z,13.97
2017-06-12T05:50:19.517Z,13.93
2017-06-12T05:50:48.125Z,13.94
2017-06-12T05:51:17.388Z,13.95
2017-06-12T05:51:47.198Z,13.94
2017-06-12T05:52:15.737Z,13.91
2017-06-12T05:52:44.347Z,13.95
2017-06-12T05:53:12.943Z,13.94
2017-06-12T05:53:41.560Z,13.97
2017-06-12T05:54:10.167Z,13.98
2017-06-12T05:54:38.660Z,13.87
2017-06-12T05:55:07.271Z,13.91
2017-06-12T05:55:35.904Z,14
2017-06-12T05:56:04.549Z,13.91
2017-06-12T05:56:33.152Z,13.94
2017-06-12T05:57:01.731Z,13.94
2017-06-12T05:57:30.237Z,13.91
2017-06-12T05:57:58.849Z,13.97
2017-06-12T05:58:27.466Z,13.86
2017-06-12T05:58:56.084Z,13.89
2017-06-12T05:59:24.702Z,13.94
2017-06-12T05:59:53.331Z,13.86
2017-06-12T06:00:21.943Z,13.86
2017-06-12T06:00:50.487Z,13.93
2017-06-12T06:01:19.114Z,13.95
2017-06-12T06:01:47.723Z,13.94
2017-06-12T06:02:16.223Z,13.95
2017-06-12T06:02:44.845Z,13.95
2017-06-12T06:03:13.475Z,13.95
2017-06-12T06:03:42.087Z,13.95
2017-06-12T06:04:10.635Z,13.94
2017-06-12T06:04:39.170Z,13.94
2017-06-12T06:05:07.775Z,13.95
2017-06-12T06:05:36.378Z,13.98
2017-06-12T06:06:04.915Z,13.94
2017-06-12T06:06:33.523Z,13.95
2017-06-12T06:07:02.123Z,14
2017-06-12T06:07:30.745Z,14
2017-06-12T06:07:59.253Z,13.94
2017-06-12T06:08:27.839Z,13.89
2017-06-12T06:08:56.444Z,13.95
2017-06-12T06:09:25.075Z,13.97
2017-06-12T06:09:53.682Z,13.95
2017-06-12T06:10:22.289Z,13.89